sensor_id;sensor_type;location;lat;lon;timestamp;P1;durP1;ratioP1;P2;durP2;ratioP2
4486;SDS011;2256;48.740;9.106;2023-07-02T00:02:14;5.00;;;2.43;;
4486;SDS011;2256;48.740;9.106;2023-07-02T00:04:42;6.53;;;3.90;;
4486;SDS011;2256;48.740;9.106;2023-07-02T00:07:09;2.83;;;2.53;;
4486;SDS011;2256;48.740;9.106;2023-07-02T00:09:36;5.17;;;2.93;;
4486;SDS011;2256;48.740;9.106;2023-07-02T00:12:03;3.67;;;2.50;;
4486;SDS011;2256;48.740;9.106;2023-07-02T00:14:30;9.80;;;2.90;;
4486;SDS011;2256;48.740;9.106;2023-07-02T00:16:57;3.90;;;2.70;;
4486;SDS011;2256;48.740;9.106;2023-07-02T00:19:25;4.10;;;2.50;;
4486;SDS011;2256;48.740;9.106;2023-07-02T00:21:52;4.03;;;2.83;;
4486;SDS011;2256;48.740;9.106;2023-07-02T00:24:20;4.40;;;2.90;;
4486;SDS011;2256;48.740;9.106;2023-07-02T00:26:46;4.33;;;2.90;;
4486;SDS011;2256;48.740;9.106;2023-07-02T00:29:13;4.03;;;3.00;;
4486;SDS011;2256;48.740;9.106;2023-07-02T00:31:41;3.03;;;2.73;;
4486;SDS011;2256;48.740;9.106;2023-07-02T00:34:09;4.90;;;3.57;;
4486;SDS011;2256;48.740;9.106;2023-07-02T00:36:37;3.90;;;2.70;;
4486;SDS011;2256;48.740;9.106;2023-07-02T00:39:16;2.70;;;2.40;;
4486;SDS011;2256;48.740;9.106;2023-07-02T00:41:43;5.90;;;3.23;;
4486;SDS011;2256;48.740;9.106;2023-07-02T00:44:11;3.23;;;2.93;;
4486;SDS011;2256;48.740;9.106;2023-07-02T00:46:38;3.53;;;2.73;;
4486;SDS011;2256;48.740;9.106;2023-07-02T00:49:05;3.57;;;2.60;;
4486;SDS011;2256;48.740;9.106;2023-07-02T00:51:34;5.03;;;2.80;;
4486;SDS011;2256;48.740;9.106;2023-07-02T00:54:05;3.43;;;2.83;;
4486;SDS011;2256;48.740;9.106;2023-07-02T00:56:34;2.67;;;2.40;;
4486;SDS011;2256;48.740;9.106;2023-07-02T00:59:01;4.00;;;2.93;;
4486;SDS011;2256;48.740;9.106;2023-07-02T01:01:30;3.10;;;2.57;;
4486;SDS011;2256;48.740;9.106;2023-07-02T01:04:05;4.93;;;2.50;;
4486;SDS011;2256;48.740;9.106;2023-07-02T01:06:35;2.50;;;2.30;;
4486;SDS011;2256;48.740;9.106;2023-07-02T01:09:06;4.20;;;2.47;;
4486;SDS011;2256;48.740;9.106;2023-07-02T01:11:34;2.97;;;2.67;;
4486;SDS011;2256;48.740;9.106;2023-07-02T01:14:05;2.27;;;2.07;;
4486;SDS011;2256;48.740;9.106;2023-07-02T01:16:34;3.80;;;2.90;;
4486;SDS011;2256;48.740;9.106;2023-07-02T01:19:04;3.13;;;2.60;;
4486;SDS011;2256;48.740;9.106;2023-07-02T01:21:38;9.30;;;3.17;;
4486;SDS011;2256;48.740;9.106;2023-07-02T01:24:05;5.77;;;2.93;;
4486;SDS011;2256;48.740;9.106;2023-07-02T01:26:32;3.30;;;2.70;;
4486;SDS011;2256;48.740;9.106;2023-07-02T01:29:11;4.37;;;2.80;;
4486;SDS011;2256;48.740;9.106;2023-07-02T01:31:39;3.90;;;2.60;;
4486;SDS011;2256;48.740;9.106;2023-07-02T01:34:06;3.00;;;2.70;;
4486;SDS011;2256;48.740;9.106;2023-07-02T01:36:34;2.80;;;2.60;;
4486;SDS011;2256;48.740;9.106;2023-07-02T01:39:02;2.83;;;2.57;;
4486;SDS011;2256;48.740;9.106;2023-07-02T01:41:29;4.50;;;3.13;;
4486;SDS011;2256;48.740;9.106;2023-07-02T01:43:58;4.13;;;2.73;;
4486;SDS011;2256;48.740;9.106;2023-07-02T01:46:24;3.80;;;2.80;;
4486;SDS011;2256;48.740;9.106;2023-07-02T01:48:51;4.10;;;2.13;;
4486;SDS011;2256;48.740;9.106;2023-07-02T01:51:18;3.33;;;2.57;;
4486;SDS011;2256;48.740;9.106;2023-07-02T01:53:46;5.47;;;3.03;;
4486;SDS011;2256;48.740;9.106;2023-07-02T01:56:14;3.17;;;2.87;;
4486;SDS011;2256;48.740;9.106;2023-07-02T01:58:41;2.90;;;2.50;;
4486;SDS011;2256;48.740;9.106;2023-07-02T02:01:07;5.10;;;2.80;;
4486;SDS011;2256;48.740;9.106;2023-07-02T02:03:34;4.67;;;3.00;;
4486;SDS011;2256;48.740;9.106;2023-07-02T02:06:01;3.30;;;2.67;;
4486;SDS011;2256;48.740;9.106;2023-07-02T02:08:28;3.50;;;2.87;;
4486;SDS011;2256;48.740;9.106;2023-07-02T02:10:55;6.73;;;2.53;;
4486;SDS011;2256;48.740;9.106;2023-07-02T02:13:23;7.23;;;4.20;;
4486;SDS011;2256;48.740;9.106;2023-07-02T02:15:50;4.60;;;2.67;;
4486;SDS011;2256;48.740;9.106;2023-07-02T02:18:17;2.43;;;2.23;;
4486;SDS011;2256;48.740;9.106;2023-07-02T02:20:44;2.63;;;2.27;;
4486;SDS011;2256;48.740;9.106;2023-07-02T02:23:11;9.03;;;2.83;;
4486;SDS011;2256;48.740;9.106;2023-07-02T02:25:38;3.90;;;2.13;;
4486;SDS011;2256;48.740;9.106;2023-07-02T02:28:05;3.40;;;2.67;;
4486;SDS011;2256;48.740;9.106;2023-07-02T02:30:34;3.10;;;2.63;;
4486;SDS011;2256;48.740;9.106;2023-07-02T02:33:01;11.13;;;3.20;;
4486;SDS011;2256;48.740;9.106;2023-07-02T02:35:28;2.90;;;2.50;;
4486;SDS011;2256;48.740;9.106;2023-07-02T02:37:55;3.30;;;2.60;;
4486;SDS011;2256;48.740;9.106;2023-07-02T02:40:23;3.00;;;2.33;;
4486;SDS011;2256;48.740;9.106;2023-07-02T02:42:50;3.20;;;2.13;;
4486;SDS011;2256;48.740;9.106;2023-07-02T02:45:16;3.33;;;1.70;;
4486;SDS011;2256;48.740;9.106;2023-07-02T02:47:46;3.67;;;2.60;;
4486;SDS011;2256;48.740;9.106;2023-07-02T02:50:13;9.43;;;2.77;;
4486;SDS011;2256;48.740;9.106;2023-07-02T02:52:40;2.23;;;2.03;;
4486;SDS011;2256;48.740;9.106;2023-07-02T02:55:08;4.17;;;2.53;;
4486;SDS011;2256;48.740;9.106;2023-07-02T02:57:35;3.13;;;2.30;;
4486;SDS011;2256;48.740;9.106;2023-07-02T03:00:03;7.43;;;2.30;;
4486;SDS011;2256;48.740;9.106;2023-07-02T03:02:31;2.57;;;2.20;;
4486;SDS011;2256;48.740;9.106;2023-07-02T03:05:00;2.53;;;2.20;;
4486;SDS011;2256;48.740;9.106;2023-07-02T03:07:28;2.90;;;2.37;;
4486;SDS011;2256;48.740;9.106;2023-07-02T03:09:54;4.17;;;2.53;;
4486;SDS011;2256;48.740;9.106;2023-07-02T03:12:21;3.57;;;2.50;;
4486;SDS011;2256;48.740;9.106;2023-07-02T03:14:48;2.50;;;2.30;;
4486;SDS011;2256;48.740;9.106;2023-07-02T03:17:18;2.83;;;2.57;;
4486;SDS011;2256;48.740;9.106;2023-07-02T03:19:45;3.17;;;2.60;;
4486;SDS011;2256;48.740;9.106;2023-07-02T03:22:13;5.13;;;2.90;;
4486;SDS011;2256;48.740;9.106;2023-07-02T03:24:40;3.97;;;2.37;;
4486;SDS011;2256;48.740;9.106;2023-07-02T03:27:07;3.27;;;2.73;;
4486;SDS011;2256;48.740;9.106;2023-07-02T03:29:35;6.80;;;2.60;;
4486;SDS011;2256;48.740;9.106;2023-07-02T03:32:03;4.50;;;2.27;;
4486;SDS011;2256;48.740;9.106;2023-07-02T03:34:31;3.80;;;3.03;;
4486;SDS011;2256;48.740;9.106;2023-07-02T03:36:57;4.23;;;2.70;;
4486;SDS011;2256;48.740;9.106;2023-07-02T03:39:25;4.30;;;2.57;;
4486;SDS011;2256;48.740;9.106;2023-07-02T03:41:53;7.77;;;3.00;;
4486;SDS011;2256;48.740;9.106;2023-07-02T03:44:20;6.53;;;2.70;;
4486;SDS011;2256;48.740;9.106;2023-07-02T03:46:46;2.80;;;2.57;;
4486;SDS011;2256;48.740;9.106;2023-07-02T03:49:13;4.93;;;3.33;;
4486;SDS011;2256;48.740;9.106;2023-07-02T03:51:41;4.80;;;3.37;;
4486;SDS011;2256;48.740;9.106;2023-07-02T03:54:07;6.67;;;2.80;;
4486;SDS011;2256;48.740;9.106;2023-07-02T03:56:36;6.90;;;3.13;;
4486;SDS011;2256;48.740;9.106;2023-07-02T03:59:02;8.90;;;3.40;;
4486;SDS011;2256;48.740;9.106;2023-07-02T04:01:30;6.40;;;3.67;;
4486;SDS011;2256;48.740;9.106;2023-07-02T04:03:57;9.53;;;4.00;;
4486;SDS011;2256;48.740;9.106;2023-07-02T04:06:24;6.03;;;3.53;;
4486;SDS011;2256;48.740;9.106;2023-07-02T04:08:51;11.13;;;4.60;;
4486;SDS011;2256;48.740;9.106;2023-07-02T04:11:18;7.10;;;3.63;;
4486;SDS011;2256;48.740;9.106;2023-07-02T04:13:47;6.47;;;3.33;;
4486;SDS011;2256;48.740;9.106;2023-07-02T04:16:14;35.97;;;3.53;;
4486;SDS011;2256;48.740;9.106;2023-07-02T04:18:41;9.00;;;3.23;;
4486;SDS011;2256;48.740;9.106;2023-07-02T04:21:08;6.47;;;3.17;;
4486;SDS011;2256;48.740;9.106;2023-07-02T04:23:36;4.33;;;2.97;;
4486;SDS011;2256;48.740;9.106;2023-07-02T04:26:03;11.13;;;3.30;;
4486;SDS011;2256;48.740;9.106;2023-07-02T04:28:31;15.83;;;3.27;;
4486;SDS011;2256;48.740;9.106;2023-07-02T04:31:01;7.43;;;3.90;;
4486;SDS011;2256;48.740;9.106;2023-07-02T04:33:29;14.07;;;3.50;;
4486;SDS011;2256;48.740;9.106;2023-07-02T04:36:08;6.53;;;3.23;;
4486;SDS011;2256;48.740;9.106;2023-07-02T04:38:35;5.83;;;3.00;;
4486;SDS011;2256;48.740;9.106;2023-07-02T04:41:05;3.50;;;2.70;;
4486;SDS011;2256;48.740;9.106;2023-07-02T04:43:35;12.77;;;2.83;;
4486;SDS011;2256;48.740;9.106;2023-07-02T04:46:04;5.27;;;2.93;;
4486;SDS011;2256;48.740;9.106;2023-07-02T04:48:32;5.17;;;2.90;;
4486;SDS011;2256;48.740;9.106;2023-07-02T04:50:59;6.40;;;2.60;;
4486;SDS011;2256;48.740;9.106;2023-07-02T04:53:26;4.33;;;3.27;;
4486;SDS011;2256;48.740;9.106;2023-07-02T04:55:53;5.10;;;2.47;;
4486;SDS011;2256;48.740;9.106;2023-07-02T04:58:20;8.73;;;3.50;;
4486;SDS011;2256;48.740;9.106;2023-07-02T05:00:46;3.93;;;2.83;;
4486;SDS011;2256;48.740;9.106;2023-07-02T05:03:14;7.90;;;4.03;;
4486;SDS011;2256;48.740;9.106;2023-07-02T05:05:41;3.60;;;2.80;;
4486;SDS011;2256;48.740;9.106;2023-07-02T05:08:10;6.47;;;2.83;;
4486;SDS011;2256;48.740;9.106;2023-07-02T05:10:36;4.87;;;3.23;;
4486;SDS011;2256;48.740;9.106;2023-07-02T05:13:03;4.87;;;2.13;;
4486;SDS011;2256;48.740;9.106;2023-07-02T05:15:30;9.20;;;3.17;;
4486;SDS011;2256;48.740;9.106;2023-07-02T05:17:57;3.40;;;2.47;;
4486;SDS011;2256;48.740;9.106;2023-07-02T05:20:25;4.90;;;2.57;;
4486;SDS011;2256;48.740;9.106;2023-07-02T05:22:52;4.90;;;3.07;;
4486;SDS011;2256;48.740;9.106;2023-07-02T05:25:19;7.77;;;2.67;;
4486;SDS011;2256;48.740;9.106;2023-07-02T05:27:46;5.27;;;2.53;;
4486;SDS011;2256;48.740;9.106;2023-07-02T05:30:13;5.60;;;3.13;;
4486;SDS011;2256;48.740;9.106;2023-07-02T05:32:40;5.37;;;3.30;;
4486;SDS011;2256;48.740;9.106;2023-07-02T05:35:07;8.20;;;3.70;;
4486;SDS011;2256;48.740;9.106;2023-07-02T05:37:35;9.33;;;3.80;;
4486;SDS011;2256;48.740;9.106;2023-07-02T05:40:02;7.27;;;3.80;;
4486;SDS011;2256;48.740;9.106;2023-07-02T05:42:30;6.40;;;3.67;;
4486;SDS011;2256;48.740;9.106;2023-07-02T05:44:56;6.13;;;3.43;;
4486;SDS011;2256;48.740;9.106;2023-07-02T05:47:23;7.80;;;4.20;;
4486;SDS011;2256;48.740;9.106;2023-07-02T05:49:51;8.87;;;3.47;;
4486;SDS011;2256;48.740;9.106;2023-07-02T05:52:18;8.60;;;4.23;;
4486;SDS011;2256;48.740;9.106;2023-07-02T05:54:46;7.27;;;4.03;;
4486;SDS011;2256;48.740;9.106;2023-07-02T05:57:13;6.40;;;3.80;;
4486;SDS011;2256;48.740;9.106;2023-07-02T05:59:40;9.40;;;3.97;;
4486;SDS011;2256;48.740;9.106;2023-07-02T06:02:06;9.40;;;4.20;;
4486;SDS011;2256;48.740;9.106;2023-07-02T06:04:33;10.97;;;3.80;;
4486;SDS011;2256;48.740;9.106;2023-07-02T06:07:00;16.00;;;4.67;;
4486;SDS011;2256;48.740;9.106;2023-07-02T06:09:27;11.87;;;5.20;;
4486;SDS011;2256;48.740;9.106;2023-07-02T06:11:55;15.77;;;5.17;;
4486;SDS011;2256;48.740;9.106;2023-07-02T06:14:22;10.80;;;4.53;;
4486;SDS011;2256;48.740;9.106;2023-07-02T06:16:50;10.00;;;5.27;;
4486;SDS011;2256;48.740;9.106;2023-07-02T06:19:17;12.63;;;5.30;;
4486;SDS011;2256;48.740;9.106;2023-07-02T06:21:44;8.60;;;5.20;;
4486;SDS011;2256;48.740;9.106;2023-07-02T06:24:11;15.27;;;5.60;;
4486;SDS011;2256;48.740;9.106;2023-07-02T06:26:38;13.30;;;6.13;;
4486;SDS011;2256;48.740;9.106;2023-07-02T06:29:06;10.43;;;5.23;;
4486;SDS011;2256;48.740;9.106;2023-07-02T06:31:33;12.13;;;5.20;;
4486;SDS011;2256;48.740;9.106;2023-07-02T06:34:00;9.83;;;5.13;;
4486;SDS011;2256;48.740;9.106;2023-07-02T06:36:27;11.90;;;5.90;;
4486;SDS011;2256;48.740;9.106;2023-07-02T06:38:54;16.63;;;6.13;;
4486;SDS011;2256;48.740;9.106;2023-07-02T06:41:20;14.67;;;6.60;;
4486;SDS011;2256;48.740;9.106;2023-07-02T06:43:47;13.20;;;6.43;;
4486;SDS011;2256;48.740;9.106;2023-07-02T06:46:15;20.93;;;8.03;;
4486;SDS011;2256;48.740;9.106;2023-07-02T06:48:42;14.83;;;6.10;;
4486;SDS011;2256;48.740;9.106;2023-07-02T06:51:10;14.27;;;6.70;;
4486;SDS011;2256;48.740;9.106;2023-07-02T06:53:39;16.13;;;6.17;;
4486;SDS011;2256;48.740;9.106;2023-07-02T06:56:07;16.77;;;6.20;;
4486;SDS011;2256;48.740;9.106;2023-07-02T06:58:34;13.10;;;5.93;;
4486;SDS011;2256;48.740;9.106;2023-07-02T07:01:02;17.83;;;6.63;;
4486;SDS011;2256;48.740;9.106;2023-07-02T07:03:30;15.70;;;6.77;;
4486;SDS011;2256;48.740;9.106;2023-07-02T07:05:57;20.67;;;7.83;;
4486;SDS011;2256;48.740;9.106;2023-07-02T07:08:24;12.83;;;6.80;;
4486;SDS011;2256;48.740;9.106;2023-07-02T07:10:57;14.93;;;6.17;;
4486;SDS011;2256;48.740;9.106;2023-07-02T07:13:23;17.70;;;7.33;;
4486;SDS011;2256;48.740;9.106;2023-07-02T07:15:50;19.97;;;6.90;;
4486;SDS011;2256;48.740;9.106;2023-07-02T07:18:17;21.30;;;7.80;;
4486;SDS011;2256;48.740;9.106;2023-07-02T07:20:48;17.53;;;8.00;;
4486;SDS011;2256;48.740;9.106;2023-07-02T07:23:15;25.37;;;8.37;;
4486;SDS011;2256;48.740;9.106;2023-07-02T07:25:42;18.40;;;7.40;;
4486;SDS011;2256;48.740;9.106;2023-07-02T07:28:09;19.53;;;8.07;;
4486;SDS011;2256;48.740;9.106;2023-07-02T07:30:41;18.00;;;8.20;;
4486;SDS011;2256;48.740;9.106;2023-07-02T07:33:07;19.63;;;8.43;;
4486;SDS011;2256;48.740;9.106;2023-07-02T07:35:35;16.10;;;8.20;;
4486;SDS011;2256;48.740;9.106;2023-07-02T07:38:04;14.33;;;7.50;;
4486;SDS011;2256;48.740;9.106;2023-07-02T07:40:30;19.53;;;8.07;;
4486;SDS011;2256;48.740;9.106;2023-07-02T07:42:57;19.40;;;8.97;;
4486;SDS011;2256;48.740;9.106;2023-07-02T07:45:24;23.90;;;8.40;;
4486;SDS011;2256;48.740;9.106;2023-07-02T07:47:51;15.80;;;7.70;;
4486;SDS011;2256;48.740;9.106;2023-07-02T07:50:17;18.20;;;8.27;;
4486;SDS011;2256;48.740;9.106;2023-07-02T07:52:44;17.00;;;8.10;;
4486;SDS011;2256;48.740;9.106;2023-07-02T07:55:12;21.23;;;10.00;;
4486;SDS011;2256;48.740;9.106;2023-07-02T07:57:39;20.33;;;9.40;;
4486;SDS011;2256;48.740;9.106;2023-07-02T08:00:06;19.33;;;8.87;;
4486;SDS011;2256;48.740;9.106;2023-07-02T08:02:36;20.77;;;8.67;;
4486;SDS011;2256;48.740;9.106;2023-07-02T08:05:03;22.97;;;8.47;;
4486;SDS011;2256;48.740;9.106;2023-07-02T08:07:30;20.93;;;9.40;;
4486;SDS011;2256;48.740;9.106;2023-07-02T08:09:58;18.10;;;7.80;;
4486;SDS011;2256;48.740;9.106;2023-07-02T08:12:26;20.03;;;8.87;;
4486;SDS011;2256;48.740;9.106;2023-07-02T08:14:54;18.17;;;8.57;;
4486;SDS011;2256;48.740;9.106;2023-07-02T08:17:21;19.73;;;8.20;;
4486;SDS011;2256;48.740;9.106;2023-07-02T08:19:48;22.40;;;8.93;;
4486;SDS011;2256;48.740;9.106;2023-07-02T08:22:15;22.37;;;9.37;;
4486;SDS011;2256;48.740;9.106;2023-07-02T08:24:41;24.63;;;9.20;;
4486;SDS011;2256;48.740;9.106;2023-07-02T08:27:08;16.67;;;8.60;;
4486;SDS011;2256;48.740;9.106;2023-07-02T08:29:40;20.13;;;8.80;;
4486;SDS011;2256;48.740;9.106;2023-07-02T08:32:07;22.37;;;9.90;;
4486;SDS011;2256;48.740;9.106;2023-07-02T08:34:34;21.33;;;9.53;;
4486;SDS011;2256;48.740;9.106;2023-07-02T08:37:01;16.57;;;8.50;;
4486;SDS011;2256;48.740;9.106;2023-07-02T08:39:28;31.87;;;9.10;;
4486;SDS011;2256;48.740;9.106;2023-07-02T08:41:55;19.70;;;8.87;;
4486;SDS011;2256;48.740;9.106;2023-07-02T08:44:22;24.40;;;8.93;;
4486;SDS011;2256;48.740;9.106;2023-07-02T08:46:50;22.53;;;8.37;;
4486;SDS011;2256;48.740;9.106;2023-07-02T08:49:21;19.90;;;8.73;;
4486;SDS011;2256;48.740;9.106;2023-07-02T08:51:48;19.50;;;8.53;;
4486;SDS011;2256;48.740;9.106;2023-07-02T08:54:16;21.60;;;8.70;;
4486;SDS011;2256;48.740;9.106;2023-07-02T08:56:44;23.00;;;10.17;;
4486;SDS011;2256;48.740;9.106;2023-07-02T08:59:10;27.53;;;8.93;;
4486;SDS011;2256;48.740;9.106;2023-07-02T09:01:46;15.90;;;7.13;;
4486;SDS011;2256;48.740;9.106;2023-07-02T09:04:16;16.17;;;7.70;;
4486;SDS011;2256;48.740;9.106;2023-07-02T09:06:44;27.60;;;8.30;;
4486;SDS011;2256;48.740;9.106;2023-07-02T09:09:11;19.40;;;7.53;;
4486;SDS011;2256;48.740;9.106;2023-07-02T09:11:46;18.30;;;7.17;;
4486;SDS011;2256;48.740;9.106;2023-07-02T09:14:23;17.57;;;7.73;;
4486;SDS011;2256;48.740;9.106;2023-07-02T09:17:00;19.20;;;7.70;;
4486;SDS011;2256;48.740;9.106;2023-07-02T09:19:30;13.90;;;7.20;;
4486;SDS011;2256;48.740;9.106;2023-07-02T09:21:57;21.60;;;6.90;;
4486;SDS011;2256;48.740;9.106;2023-07-02T09:24:25;20.70;;;7.37;;
4486;SDS011;2256;48.740;9.106;2023-07-02T09:26:54;17.70;;;7.50;;
4486;SDS011;2256;48.740;9.106;2023-07-02T09:29:22;16.87;;;7.23;;
4486;SDS011;2256;48.740;9.106;2023-07-02T09:31:51;15.30;;;7.90;;
4486;SDS011;2256;48.740;9.106;2023-07-02T09:34:18;16.50;;;7.83;;
4486;SDS011;2256;48.740;9.106;2023-07-02T09:36:47;17.80;;;7.40;;
4486;SDS011;2256;48.740;9.106;2023-07-02T09:39:19;19.60;;;8.40;;
4486;SDS011;2256;48.740;9.106;2023-07-02T09:41:53;14.23;;;6.97;;
4486;SDS011;2256;48.740;9.106;2023-07-02T09:44:30;21.30;;;7.80;;
4486;SDS011;2256;48.740;9.106;2023-07-02T09:47:03;14.13;;;7.80;;
4486;SDS011;2256;48.740;9.106;2023-07-02T09:49:33;14.33;;;7.13;;
4486;SDS011;2256;48.740;9.106;2023-07-02T09:52:06;13.50;;;7.60;;
4486;SDS011;2256;48.740;9.106;2023-07-02T09:54:35;15.83;;;7.53;;
4486;SDS011;2256;48.740;9.106;2023-07-02T09:57:09;20.53;;;8.00;;
4486;SDS011;2256;48.740;9.106;2023-07-02T09:59:38;22.93;;;8.83;;
4486;SDS011;2256;48.740;9.106;2023-07-02T10:02:08;17.93;;;9.33;;
4486;SDS011;2256;48.740;9.106;2023-07-02T10:04:39;14.13;;;7.93;;
4486;SDS011;2256;48.740;9.106;2023-07-02T10:07:27;23.73;;;8.33;;
4486;SDS011;2256;48.740;9.106;2023-07-02T10:09:56;19.97;;;8.60;;
4486;SDS011;2256;48.740;9.106;2023-07-02T10:12:25;17.50;;;8.60;;
4486;SDS011;2256;48.740;9.106;2023-07-02T10:14:54;19.43;;;8.97;;
4486;SDS011;2256;48.740;9.106;2023-07-02T10:17:28;21.67;;;9.67;;
4486;SDS011;2256;48.740;9.106;2023-07-02T10:19:58;24.17;;;10.83;;
4486;SDS011;2256;48.740;9.106;2023-07-02T10:22:45;29.03;;;10.80;;
4486;SDS011;2256;48.740;9.106;2023-07-02T10:25:24;21.13;;;10.40;;
4486;SDS011;2256;48.740;9.106;2023-07-02T10:27:54;20.57;;;9.70;;
4486;SDS011;2256;48.740;9.106;2023-07-02T10:30:34;14.47;;;8.00;;
4486;SDS011;2256;48.740;9.106;2023-07-02T10:33:10;21.90;;;9.40;;
4486;SDS011;2256;48.740;9.106;2023-07-02T10:35:39;19.60;;;8.87;;
4486;SDS011;2256;48.740;9.106;2023-07-02T10:38:17;25.33;;;9.33;;
4486;SDS011;2256;48.740;9.106;2023-07-02T10:40:46;18.87;;;9.70;;
4486;SDS011;2256;48.740;9.106;2023-07-02T10:43:23;23.20;;;9.37;;
4486;SDS011;2256;48.740;9.106;2023-07-02T10:45:51;20.47;;;8.47;;
4486;SDS011;2256;48.740;9.106;2023-07-02T10:48:18;23.23;;;10.40;;
4486;SDS011;2256;48.740;9.106;2023-07-02T10:50:44;21.33;;;9.83;;
4486;SDS011;2256;48.740;9.106;2023-07-02T10:53:15;19.40;;;9.53;;
4486;SDS011;2256;48.740;9.106;2023-07-02T10:55:43;23.97;;;8.87;;
4486;SDS011;2256;48.740;9.106;2023-07-02T10:58:10;23.33;;;10.60;;
4486;SDS011;2256;48.740;9.106;2023-07-02T11:00:45;20.63;;;9.70;;
4486;SDS011;2256;48.740;9.106;2023-07-02T11:03:16;17.27;;;8.10;;
4486;SDS011;2256;48.740;9.106;2023-07-02T11:05:44;24.53;;;9.70;;
4486;SDS011;2256;48.740;9.106;2023-07-02T11:08:12;27.63;;;8.70;;
4486;SDS011;2256;48.740;9.106;2023-07-02T11:10:40;17.97;;;8.97;;
4486;SDS011;2256;48.740;9.106;2023-07-02T11:13:11;25.17;;;9.03;;
4486;SDS011;2256;48.740;9.106;2023-07-02T11:15:38;20.00;;;8.80;;
4486;SDS011;2256;48.740;9.106;2023-07-02T11:18:09;16.23;;;8.63;;
4486;SDS011;2256;48.740;9.106;2023-07-02T11:20:36;19.63;;;9.80;;
4486;SDS011;2256;48.740;9.106;2023-07-02T11:23:04;28.43;;;9.50;;
4486;SDS011;2256;48.740;9.106;2023-07-02T11:25:31;20.27;;;8.63;;
4486;SDS011;2256;48.740;9.106;2023-07-02T11:28:05;19.53;;;8.37;;
4486;SDS011;2256;48.740;9.106;2023-07-02T11:30:32;29.00;;;9.07;;
4486;SDS011;2256;48.740;9.106;2023-07-02T11:33:00;21.03;;;8.40;;
4486;SDS011;2256;48.740;9.106;2023-07-02T11:35:34;20.40;;;7.97;;
4486;SDS011;2256;48.740;9.106;2023-07-02T11:38:01;20.90;;;9.40;;
4486;SDS011;2256;48.740;9.106;2023-07-02T11:40:28;18.60;;;9.50;;
4486;SDS011;2256;48.740;9.106;2023-07-02T11:42:55;18.60;;;9.60;;
4486;SDS011;2256;48.740;9.106;2023-07-02T11:45:23;24.87;;;9.70;;
4486;SDS011;2256;48.740;9.106;2023-07-02T11:47:49;21.27;;;8.73;;
4486;SDS011;2256;48.740;9.106;2023-07-02T11:50:16;33.57;;;9.33;;
4486;SDS011;2256;48.740;9.106;2023-07-02T11:52:43;21.00;;;8.93;;
4486;SDS011;2256;48.740;9.106;2023-07-02T11:55:10;20.13;;;8.70;;
4486;SDS011;2256;48.740;9.106;2023-07-02T11:57:37;19.77;;;8.40;;
4486;SDS011;2256;48.740;9.106;2023-07-02T12:00:04;17.23;;;7.93;;
4486;SDS011;2256;48.740;9.106;2023-07-02T12:02:41;27.10;;;9.40;;
4486;SDS011;2256;48.740;9.106;2023-07-02T12:05:10;19.30;;;8.20;;
4486;SDS011;2256;48.740;9.106;2023-07-02T12:07:38;17.70;;;7.53;;
4486;SDS011;2256;48.740;9.106;2023-07-02T12:10:05;19.17;;;10.33;;
4486;SDS011;2256;48.740;9.106;2023-07-02T12:12:33;21.27;;;8.93;;
4486;SDS011;2256;48.740;9.106;2023-07-02T12:15:00;17.10;;;8.43;;
4486;SDS011;2256;48.740;9.106;2023-07-02T12:17:27;18.37;;;8.60;;
4486;SDS011;2256;48.740;9.106;2023-07-02T12:19:56;20.67;;;9.40;;
4486;SDS011;2256;48.740;9.106;2023-07-02T12:22:24;20.00;;;9.10;;
4486;SDS011;2256;48.740;9.106;2023-07-02T12:24:51;17.37;;;8.47;;
4486;SDS011;2256;48.740;9.106;2023-07-02T12:27:20;19.03;;;9.70;;
4486;SDS011;2256;48.740;9.106;2023-07-02T12:29:47;16.97;;;8.40;;
4486;SDS011;2256;48.740;9.106;2023-07-02T12:32:14;20.63;;;9.30;;
4486;SDS011;2256;48.740;9.106;2023-07-02T12:34:41;20.13;;;8.70;;
4486;SDS011;2256;48.740;9.106;2023-07-02T12:37:09;16.40;;;8.83;;
4486;SDS011;2256;48.740;9.106;2023-07-02T12:39:36;24.57;;;10.67;;
4486;SDS011;2256;48.740;9.106;2023-07-02T12:42:03;17.57;;;8.07;;
4486;SDS011;2256;48.740;9.106;2023-07-02T12:44:30;21.90;;;9.97;;
4486;SDS011;2256;48.740;9.106;2023-07-02T12:46:57;23.60;;;10.07;;
4486;SDS011;2256;48.740;9.106;2023-07-02T12:49:24;20.10;;;9.53;;
4486;SDS011;2256;48.740;9.106;2023-07-02T12:51:51;17.07;;;9.07;;
4486;SDS011;2256;48.740;9.106;2023-07-02T12:54:19;16.87;;;8.80;;
4486;SDS011;2256;48.740;9.106;2023-07-02T12:56:46;27.10;;;9.37;;
4486;SDS011;2256;48.740;9.106;2023-07-02T12:59:13;19.17;;;8.53;;
4486;SDS011;2256;48.740;9.106;2023-07-02T13:01:40;25.23;;;9.50;;
4486;SDS011;2256;48.740;9.106;2023-07-02T13:04:07;17.73;;;9.40;;
4486;SDS011;2256;48.740;9.106;2023-07-02T13:06:34;19.83;;;7.97;;
4486;SDS011;2256;48.740;9.106;2023-07-02T13:09:05;18.70;;;7.90;;
4486;SDS011;2256;48.740;9.106;2023-07-02T13:11:33;20.57;;;9.67;;
4486;SDS011;2256;48.740;9.106;2023-07-02T13:14:00;23.37;;;9.37;;
4486;SDS011;2256;48.740;9.106;2023-07-02T13:16:28;19.47;;;9.50;;
4486;SDS011;2256;48.740;9.106;2023-07-02T13:19:01;19.63;;;9.80;;
4486;SDS011;2256;48.740;9.106;2023-07-02T13:21:28;21.30;;;9.47;;
4486;SDS011;2256;48.740;9.106;2023-07-02T13:23:55;20.87;;;8.93;;
4486;SDS011;2256;48.740;9.106;2023-07-02T13:26:22;17.73;;;8.10;;
4486;SDS011;2256;48.740;9.106;2023-07-02T13:28:50;15.53;;;8.23;;
4486;SDS011;2256;48.740;9.106;2023-07-02T13:31:17;19.77;;;8.23;;
4486;SDS011;2256;48.740;9.106;2023-07-02T13:33:44;17.67;;;8.77;;
4486;SDS011;2256;48.740;9.106;2023-07-02T13:36:11;15.83;;;8.33;;
4486;SDS011;2256;48.740;9.106;2023-07-02T13:38:38;22.70;;;9.80;;
4486;SDS011;2256;48.740;9.106;2023-07-02T13:41:05;21.00;;;8.27;;
4486;SDS011;2256;48.740;9.106;2023-07-02T13:43:31;21.10;;;7.93;;
4486;SDS011;2256;48.740;9.106;2023-07-02T13:46:00;17.50;;;8.70;;
4486;SDS011;2256;48.740;9.106;2023-07-02T13:48:27;17.57;;;8.03;;
4486;SDS011;2256;48.740;9.106;2023-07-02T13:50:53;16.70;;;8.43;;
4486;SDS011;2256;48.740;9.106;2023-07-02T13:53:20;20.77;;;9.87;;
4486;SDS011;2256;48.740;9.106;2023-07-02T13:55:47;17.80;;;8.70;;
4486;SDS011;2256;48.740;9.106;2023-07-02T13:58:14;21.57;;;8.97;;
4486;SDS011;2256;48.740;9.106;2023-07-02T14:00:42;18.60;;;8.00;;
4486;SDS011;2256;48.740;9.106;2023-07-02T14:03:09;23.57;;;10.80;;
4486;SDS011;2256;48.740;9.106;2023-07-02T14:05:36;17.60;;;8.90;;
4486;SDS011;2256;48.740;9.106;2023-07-02T14:08:03;17.20;;;8.60;;
4486;SDS011;2256;48.740;9.106;2023-07-02T14:10:30;18.70;;;8.63;;
4486;SDS011;2256;48.740;9.106;2023-07-02T14:12:56;19.00;;;8.20;;
4486;SDS011;2256;48.740;9.106;2023-07-02T14:15:39;17.47;;;8.27;;
4486;SDS011;2256;48.740;9.106;2023-07-02T14:18:07;21.90;;;9.47;;
4486;SDS011;2256;48.740;9.106;2023-07-02T14:20:34;19.17;;;8.50;;
4486;SDS011;2256;48.740;9.106;2023-07-02T14:23:01;36.80;;;8.73;;
4486;SDS011;2256;48.740;9.106;2023-07-02T14:25:28;20.33;;;9.30;;
4486;SDS011;2256;48.740;9.106;2023-07-02T14:27:55;21.17;;;9.07;;
4486;SDS011;2256;48.740;9.106;2023-07-02T14:30:22;17.23;;;8.20;;
4486;SDS011;2256;48.740;9.106;2023-07-02T14:32:50;27.23;;;9.80;;
4486;SDS011;2256;48.740;9.106;2023-07-02T14:35:18;18.07;;;8.17;;
4486;SDS011;2256;48.740;9.106;2023-07-02T14:37:47;20.90;;;9.50;;
4486;SDS011;2256;48.740;9.106;2023-07-02T14:40:14;17.00;;;8.40;;
4486;SDS011;2256;48.740;9.106;2023-07-02T14:42:40;19.67;;;9.03;;
4486;SDS011;2256;48.740;9.106;2023-07-02T14:45:08;15.77;;;9.10;;
4486;SDS011;2256;48.740;9.106;2023-07-02T14:47:35;19.03;;;9.17;;
4486;SDS011;2256;48.740;9.106;2023-07-02T14:50:02;20.20;;;9.70;;
4486;SDS011;2256;48.740;9.106;2023-07-02T14:52:30;14.00;;;8.53;;
4486;SDS011;2256;48.740;9.106;2023-07-02T14:54:57;17.77;;;9.40;;
4486;SDS011;2256;48.740;9.106;2023-07-02T14:57:26;22.03;;;9.37;;
4486;SDS011;2256;48.740;9.106;2023-07-02T14:59:53;20.60;;;8.20;;
4486;SDS011;2256;48.740;9.106;2023-07-02T15:02:20;21.40;;;9.87;;
4486;SDS011;2256;48.740;9.106;2023-07-02T15:04:46;18.17;;;8.83;;
4486;SDS011;2256;48.740;9.106;2023-07-02T15:07:13;18.23;;;9.90;;
4486;SDS011;2256;48.740;9.106;2023-07-02T15:09:42;19.80;;;9.50;;
4486;SDS011;2256;48.740;9.106;2023-07-02T15:12:08;19.93;;;8.47;;